Time,TemperatureF,DewpointF,PressureIn,WindDirection,WindDirectionDegrees,WindSpeedMPH,WindSpeedGustMPH,Humidity,HourlyPrecipIn,Conditions,Clouds,dailyrainin,SoftwareType,DateUTC
2013-02-19 00:00:00,50.0,33.6,30.12,NNE,19,1.0,3.0,53,0.00,,FEW250,0.00,VWS V14.01,2013-02-19 06:00:00,
2013-02-19 00:05:00,49.9,33.9,30.12,NNE,27,3.0,3.0,54,0.00,,FEW250,0.00,VWS V14.01,2013-02-19 06:05:00,
2013-02-19 00:10:00,49.9,33.9,30.12,NW,324,2.0,4.0,54,0.00,,FEW250,0.00,VWS V14.01,2013-02-19 06:10:00,
2013-02-19 00:15:00,49.9,33.5,30.12,NW,326,1.0,7.0,53,0.00,,FEW250,0.00,VWS V14.01,2013-02-19 06:15:00,
2013-02-19 00:20:00,49.8,33.4,30.12,NNE,19,1.0,5.0,53,0.00,,FEW250,0.00,VWS V14.01,2013-02-19 06:20:00,
2013-02-19 00:25:00,49.9,33.0,30.12,NNE,19,0.0,4.0,52,0.00,,FEW250,0.00,VWS V14.01,2013-02-19 06:25:00,
2013-02-19 00:30:00,49.9,33.0,30.13,NNW,329,4.0,5.0,52,0.00,,FEW250,0.00,VWS V14.01,2013-02-19 06:30:00,
2013-02-19 00:35:00,49.9,32.5,30.13,NNW,337,3.0,4.0,51,0.00,,FEW250,0.00,VWS V14.01,2013-02-19 06:35:00,
2013-02-19 00:40:00,50.0,32.1,30.13,NE,34,1.0,5.0,50,0.00,,FEW250,0.00,VWS V14.01,2013-02-19 06:40:00,
2013-02-19 00:45:00,50.0,32.1,30.14,NNE,23,1.0,5.0,50,0.00,,FEW250,0.00,VWS V14.01,2013-02-19 06:45:00,
2013-02-19 00:50:00,49.9,32.0,30.14,NNW,346,1.0,4.0,50,0.00,,FEW250,0.00,VWS V14.01,2013-02-19 06:50:00,
2013-02-19 00:55:00,49.7,31.8,30.14,NE,35,1.0,4.0,50,0.00,,FEW250,0.00,VWS V14.01,2013-02-19 06:55:00,
2013-02-19 01:00:00,49.7,31.8,30.14,North,11,2.0,4.0,50,0.00,,CLR,0.00,VWS V14.01,2013-02-19 07:00:00,
2013-02-19 01:05:00,49.9,31.5,30.14,North,355,0.0,7.0,49,0.00,,CLR,0.00,VWS V14.01,2013-02-19 07:05:00,
2013-02-19 01:10:00,49.7,31.3,30.14,NNW,327,3.0,4.0,49,0.00,,CLR,0.00,VWS V14.01,2013-02-19 07:10:00,
2013-02-19 01:15:00,49.6,31.2,30.14,NNE,20,2.0,5.0,49,0.00,,CLR,0.00,VWS V14.01,2013-02-19 07:15:00,
2013-02-19 01:20:00,49.5,31.6,30.14,NNW,334,4.0,6.0,50,0.00,,CLR,0.00,VWS V14.01,2013-02-19 07:20:00,
2013-02-19 01:25:00,49.5,31.6,30.14,WNW,297,2.0,4.0,50,0.00,,CLR,0.00,VWS V14.01,2013-02-19 07:25:00,
2013-02-19 01:30:00,49.4,31.6,30.14,North,5,0.0,6.0,50,0.00,,CLR,0.00,VWS V14.01,2013-02-19 07:30:00,
2013-02-19 01:36:00,49.3,31.5,30.13,NNE,28,2.0,6.0,50,0.00,,CLR,0.00,VWS V14.01,2013-02-19 07:36:00,
2013-02-19 01:40:00,49.1,31.3,30.14,NNW,340,1.0,3.0,50,0.00,,CLR,0.00,VWS V14.01,2013-02-19 07:40:00,
2013-02-19 01:46:00,49.0,31.7,30.14,NNE,19,2.0,4.0,51,0.00,,CLR,0.00,VWS V14.01,2013-02-19 07:46:00,
2013-02-19 01:51:00,48.7,31.4,30.14,NNW,333,1.0,2.0,51,0.00,,CLR,0.00,VWS V14.01,2013-02-19 07:51:00,
2013-02-19 01:56:00,48.4,31.6,30.14,North,355,1.0,3.0,52,0.00,,CLR,0.00,VWS V14.01,2013-02-19 07:56:00,
2013-02-19 02:01:00,48.1,31.8,30.13,NE,34,0.0,3.0,53,0.00,,CLR,0.00,VWS V14.01,2013-02-19 08:01:00,
2013-02-19 02:06:00,47.7,31.9,30.13,North,355,2.0,4.0,54,0.00,,CLR,0.00,VWS V14.01,2013-02-19 08:06:00,
2013-02-19 02:11:00,47.3,32.0,30.13,NE,40,0.0,3.0,55,0.00,,CLR,0.00,VWS V14.01,2013-02-19 08:11:00,
2013-02-19 02:16:00,46.9,32.0,30.13,NE,46,1.0,3.0,56,0.00,,CLR,0.00,VWS V14.01,2013-02-19 08:16:00,
2013-02-19 02:21:00,46.5,31.7,30.13,NE,46,1.0,3.0,56,0.00,,CLR,0.00,VWS V14.01,2013-02-19 08:21:00,
2013-02-19 02:26:00,46.1,31.7,30.13,NNW,346,2.0,2.0,57,0.00,,CLR,0.00,VWS V14.01,2013-02-19 08:26:00,
2013-02-19 02:31:00,45.8,31.5,30.13,NE,46,0.0,2.0,57,0.00,,CLR,0.00,VWS V14.01,2013-02-19 08:31:00,
2013-02-19 02:36:00,45.6,31.3,30.13,NE,42,1.0,5.0,57,0.00,,CLR,0.00,VWS V14.01,2013-02-19 08:36:00,
2013-02-19 02:41:00,45.4,31.5,30.13,NNW,335,2.0,2.0,58,0.00,,CLR,0.00,VWS V14.01,2013-02-19 08:41:00,
2013-02-19 02:46:00,45.2,30.9,30.12,NNE,26,1.0,4.0,57,0.00,,CLR,0.00,VWS V14.01,2013-02-19 08:46:00,
2013-02-19 02:51:00,45.0,30.7,30.12,NE,50,2.0,2.0,57,0.00,,CLR,0.00,VWS V14.01,2013-02-19 08:51:00,
2013-02-19 02:56:00,45.0,30.7,30.11,NE,42,3.0,4.0,57,0.00,,CLR,0.00,VWS V14.01,2013-02-19 08:56:00,
2013-02-19 03:01:00,44.9,30.6,30.11,NE,36,4.0,5.0,57,0.00,,CLR,0.00,VWS V14.01,2013-02-19 09:01:00,
2013-02-19 03:06:00,44.9,30.6,30.11,North,350,0.0,6.0,57,0.00,,CLR,0.00,VWS V14.01,2013-02-19 09:06:00,
2013-02-19 03:11:00,44.9,30.6,30.12,NNW,344,1.0,5.0,57,0.00,,CLR,0.00,VWS V14.01,2013-02-19 09:11:00,
2013-02-19 03:16:00,45.0,30.3,30.12,NNW,336,0.0,4.0,56,0.00,,CLR,0.00,VWS V14.01,2013-02-19 09:16:00,
2013-02-19 03:21:00,45.0,30.7,30.13,NNW,347,0.0,2.0,57,0.00,,CLR,0.00,VWS V14.01,2013-02-19 09:21:00,
2013-02-19 03:26:00,44.7,30.9,30.14,NNW,346,0.0,0.0,58,0.00,,CLR,0.00,VWS V14.01,2013-02-19 09:26:00,
2013-02-19 03:31:00,44.6,30.8,30.14,NNW,328,1.0,1.0,58,0.00,,CLR,0.00,VWS V14.01,2013-02-19 09:31:00,
2013-02-19 03:36:00,44.5,30.2,30.14,WNW,303,1.0,2.0,57,0.00,,CLR,0.00,VWS V14.01,2013-02-19 09:36:00,
2013-02-19 03:41:00,44.5,29.8,30.14,NNE,22,0.0,1.0,56,0.00,,CLR,0.00,VWS V14.01,2013-02-19 09:41:00,
2013-02-19 03:46:00,44.5,30.7,30.14,NW,325,0.0,1.0,58,0.00,,CLR,0.00,VWS V14.01,2013-02-19 09:46:00,
2013-02-19 03:51:00,44.3,32.1,30.15,NNE,30,1.0,2.0,62,0.00,,CLR,0.00,VWS V14.01,2013-02-19 09:51:00,
2013-02-19 03:56:00,44.3,30.9,30.15,NNW,333,0.0,1.0,59,0.00,,CLR,0.00,VWS V14.01,2013-02-19 09:56:00,
2013-02-19 04:01:00,44.1,29.9,30.16,NNW,333,0.0,1.0,57,0.00,,BKN250,0.00,VWS V14.01,2013-02-19 10:01:00,
2013-02-19 04:06:00,43.9,29.7,30.16,NNW,333,0.0,0.0,57,0.00,,BKN250,0.00,VWS V14.01,2013-02-19 10:06:00,
2013-02-19 04:11:00,43.9,29.7,30.15,NE,50,0.0,1.0,57,0.00,,BKN250,0.00,VWS V14.01,2013-02-19 10:11:00,
2013-02-19 04:16:00,43.8,29.6,30.16,NE,56,2.0,4.0,57,0.00,,BKN250,0.00,VWS V14.01,2013-02-19 10:16:00,
2013-02-19 04:21:00,43.9,29.7,30.16,NE,55,0.0,2.0,57,0.00,,BKN250,0.00,VWS V14.01,2013-02-19 10:21:00,
2013-02-19 04:26:00,43.9,29.7,30.16,North,11,1.0,2.0,57,0.00,,BKN250,0.00,VWS V14.01,2013-02-19 10:26:00,
2013-02-19 04:31:00,43.9,29.7,30.16,NNW,346,0.0,2.0,57,0.00,,BKN250,0.00,VWS V14.01,2013-02-19 10:31:00,
2013-02-19 04:36:00,43.7,29.9,30.16,NNW,342,0.0,2.0,58,0.00,,BKN250,0.00,VWS V14.01,2013-02-19 10:36:00,
2013-02-19 04:41:00,43.7,29.9,30.17,NNW,337,0.0,2.0,58,0.00,,BKN250,0.00,VWS V14.01,2013-02-19 10:41:00,
2013-02-19 04:46:00,43.6,29.8,30.17,NNE,29,0.0,3.0,58,0.00,,BKN250,0.00,VWS V14.01,2013-02-19 10:46:00,
2013-02-19 04:51:00,43.5,29.7,30.17,NNE,27,0.0,1.0,58,0.00,,BKN250,0.00,VWS V14.01,2013-02-19 10:51:00,
2013-02-19 04:56:00,43.4,29.6,30.18,NE,35,0.0,2.0,58,0.00,,BKN250,0.00,VWS V14.01,2013-02-19 10:56:00,
2013-02-19 05:01:00,43.1,29.8,30.18,NE,35,0.0,1.0,59,0.00,,BKN250,0.00,VWS V14.01,2013-02-19 11:01:00,
2013-02-19 05:06:00,42.7,30.2,30.18,NE,35,0.0,0.0,61,0.00,,BKN250,0.00,VWS V14.01,2013-02-19 11:06:00,
2013-02-19 05:11:00,42.2,29.7,30.19,NE,35,0.0,0.0,61,0.00,,BKN250,0.00,VWS V14.01,2013-02-19 11:11:00,
2013-02-19 05:16:00,41.5,29.9,30.19,NE,35,0.0,0.0,63,0.00,,BKN250,0.00,VWS V14.01,2013-02-19 11:16:00,
2013-02-19 05:21:00,40.9,29.7,30.19,NE,35,0.0,0.0,64,0.00,,BKN250,0.00,VWS V14.01,2013-02-19 11:21:00,
2013-02-19 05:26:00,40.4,30.0,30.20,WNW,290,0.0,1.0,66,0.00,,BKN250,0.00,VWS V14.01,2013-02-19 11:26:00,
2013-02-19 05:31:00,39.9,29.5,30.20,WNW,290,0.0,0.0,66,0.00,,BKN250,0.00,VWS V14.01,2013-02-19 11:31:00,
2013-02-19 05:36:00,39.8,29.4,30.20,NE,40,0.0,1.0,66,0.00,,BKN250,0.00,VWS V14.01,2013-02-19 11:36:00,
2013-02-19 05:41:00,40.1,29.3,30.20,NNW,328,0.0,2.0,65,0.00,,BKN250,0.00,VWS V14.01,2013-02-19 11:41:00,
2013-02-19 05:46:00,40.3,29.9,30.21,NNW,329,0.0,0.0,66,0.00,,BKN250,0.00,VWS V14.01,2013-02-19 11:46:00,
2013-02-19 05:51:00,39.9,29.5,30.21,SW,215,0.0,1.0,66,0.00,,BKN250,0.00,VWS V14.01,2013-02-19 11:51:00,
2013-02-19 05:56:00,39.6,29.9,30.21,SW,215,0.0,0.0,68,0.00,,BKN250,0.00,VWS V14.01,2013-02-19 11:56:00,
2013-02-19 06:01:00,39.3,29.6,30.22,SW,215,0.0,0.0,68,0.00,,BKN250,0.00,VWS V14.01,2013-02-19 12:01:00,
2013-02-19 06:06:00,38.7,29.4,30.22,SW,215,0.0,0.0,69,0.00,,BKN250,0.00,VWS V14.01,2013-02-19 12:06:00,
2013-02-19 06:11:00,38.2,28.9,30.22,SW,215,0.0,0.0,69,0.00,,BKN250,0.00,VWS V14.01,2013-02-19 12:11:00,
2013-02-19 06:16:00,37.7,29.5,30.22,SW,215,0.0,0.0,72,0.00,,BKN250,0.00,VWS V14.01,2013-02-19 12:16:00,
2013-02-19 06:21:00,37.4,29.5,30.22,SW,215,0.0,0.0,73,0.00,,BKN250,0.00,VWS V14.01,2013-02-19 12:21:00,
2013-02-19 06:26:00,37.0,29.2,30.21,SW,215,0.0,0.0,73,0.00,,BKN250,0.00,VWS V14.01,2013-02-19 12:26:00,
2013-02-19 06:31:00,36.7,29.2,30.22,SW,215,0.0,0.0,74,0.00,,BKN250,0.00,VWS V14.01,2013-02-19 12:31:00,
2013-02-19 06:36:00,36.5,29.3,30.22,SW,215,0.0,0.0,75,0.00,,BKN250,0.00,VWS V14.01,2013-02-19 12:36:00,
2013-02-19 06:41:00,36.2,29.0,30.22,SW,215,0.0,0.0,75,0.00,,BKN250,0.00,VWS V14.01,2013-02-19 12:41:00,
2013-02-19 06:46:00,36.0,29.2,30.23,SW,215,0.0,0.0,76,0.00,,BKN250,0.00,VWS V14.01,2013-02-19 12:46:00,
2013-02-19 06:51:00,36.1,29.6,30.24,SW,215,0.0,0.0,77,0.00,,BKN250,0.00,VWS V14.01,2013-02-19 12:51:00,
2013-02-19 06:56:00,36.1,29.3,30.24,SW,215,0.0,0.0,76,0.00,,BKN250,0.00,VWS V14.01,2013-02-19 12:56:00,
2013-02-19 07:01:00,35.9,29.4,30.25,SW,215,0.0,0.0,77,0.00,,BKN250,0.00,VWS V14.01,2013-02-19 13:01:00,
2013-02-19 07:06:00,35.8,29.3,30.25,SW,215,0.0,0.0,77,0.00,,BKN250,0.00,VWS V14.01,2013-02-19 13:06:00,
2013-02-19 07:11:00,35.6,29.1,30.25,SW,215,0.0,0.0,77,0.00,,BKN250,0.00,VWS V14.01,2013-02-19 13:11:00,
2013-02-19 07:16:00,35.4,29.2,30.26,SW,215,0.0,0.0,78,0.00,,BKN250,0.00,VWS V14.01,2013-02-19 13:16:00,
2013-02-19 07:21:00,35.8,29.6,30.26,SW,215,0.0,0.0,78,0.00,,BKN250,0.00,VWS V14.01,2013-02-19 13:21:00,
2013-02-19 07:26:00,35.9,29.4,30.27,SW,215,0.0,0.0,77,0.00,,BKN250,0.00,VWS V14.01,2013-02-19 13:26:00,
2013-02-19 07:31:00,35.9,29.7,30.27,SW,215,0.0,0.0,78,0.00,,BKN250,0.00,VWS V14.01,2013-02-19 13:31:00,
2013-02-19 07:36:00,35.9,29.7,30.27,SW,215,0.0,0.0,78,0.00,,BKN250,0.00,VWS V14.01,2013-02-19 13:36:00,
2013-02-19 07:41:00,36.2,30.0,30.28,SW,215,0.0,0.0,78,0.00,,BKN250,0.00,VWS V14.01,2013-02-19 13:41:00,
2013-02-19 07:46:00,36.6,30.4,30.29,SW,215,0.0,0.0,78,0.00,,BKN250,0.00,VWS V14.01,2013-02-19 13:46:00,
2013-02-19 07:51:00,37.2,31.0,30.30,SW,215,0.0,0.0,78,0.00,,BKN250,0.00,VWS V14.01,2013-02-19 13:51:00,
2013-02-19 07:56:00,37.6,31.4,30.30,SW,215,0.0,0.0,78,0.00,,BKN250,0.00,VWS V14.01,2013-02-19 13:56:00,
2013-02-19 08:01:00,37.6,31.4,30.30,SW,215,0.0,0.0,78,0.00,,BKN270,0.00,VWS V14.01,2013-02-19 14:01:00,
2013-02-19 08:06:00,37.6,31.4,30.30,SW,215,0.0,0.0,78,0.00,,BKN270,0.00,VWS V14.01,2013-02-19 14:06:00,
2013-02-19 08:11:00,37.6,31.4,30.30,SW,215,0.0,0.0,78,0.00,,BKN270,0.00,VWS V14.01,2013-02-19 14:11:00,
2013-02-19 08:16:00,37.6,31.4,30.30,SW,215,0.0,0.0,78,0.00,,BKN270,0.00,VWS V14.01,2013-02-19 14:16:00,
2013-02-19 08:21:00,37.6,31.4,30.30,SW,215,0.0,0.0,78,0.00,,BKN270,0.00,VWS V14.01,2013-02-19 14:21:00,
2013-02-19 08:26:00,37.6,31.4,30.31,SW,215,0.0,0.0,78,0.00,,BKN270,0.00,VWS V14.01,2013-02-19 14:26:00,
2013-02-19 08:31:00,37.6,31.4,30.31,SW,215,0.0,0.0,78,0.00,,BKN270,0.00,VWS V14.01,2013-02-19 14:31:00,
2013-02-19 08:36:00,37.6,31.4,30.32,SW,215,0.0,0.0,78,0.00,,BKN270,0.00,VWS V14.01,2013-02-19 14:36:00,
2013-02-19 08:41:00,43.7,27.7,30.32,NE,51,0.0,2.0,53,0.00,,BKN270,0.00,VWS V14.01,2013-02-19 14:41:00,
2013-02-19 08:46:00,44.4,27.9,30.32,NNE,28,0.0,2.0,52,0.00,,BKN270,0.00,VWS V14.01,2013-02-19 14:46:00,
2013-02-19 08:51:00,45.1,27.6,30.32,NE,53,3.0,5.0,50,0.00,,BKN270,0.00,VWS V14.01,2013-02-19 14:51:00,
2013-02-19 08:56:00,45.6,27.6,30.31,NNE,20,0.0,4.0,49,0.00,,BKN270,0.00,VWS V14.01,2013-02-19 14:56:00,
2013-02-19 09:01:00,46.3,28.2,30.31,NNE,27,1.0,4.0,49,0.00,,SCT270,0.00,VWS V14.01,2013-02-19 15:01:00,
2013-02-19 09:06:00,47.0,28.9,30.32,ESE,117,0.0,4.0,49,0.00,,SCT270,0.00,VWS V14.01,2013-02-19 15:06:00,
2013-02-19 09:11:00,47.7,27.4,30.32,East,88,2.0,5.0,45,0.00,,SCT270,0.00,VWS V14.01,2013-02-19 15:11:00,
2013-02-19 09:16:00,47.3,26.5,30.32,NE,38,6.0,9.0,44,0.00,,SCT270,0.00,VWS V14.01,2013-02-19 15:16:00,
2013-02-19 09:21:00,47.4,26.6,30.32,NW,310,0.0,6.0,44,0.00,,SCT270,0.00,VWS V14.01,2013-02-19 15:21:00,
2013-02-19 09:26:00,47.9,26.5,30.33,SW,230,1.0,6.0,43,0.00,,SCT270,0.00,VWS V14.01,2013-02-19 15:26:00,
2013-02-19 09:31:00,48.7,27.2,30.32,SE,124,1.0,5.0,43,0.00,,SCT270,0.00,VWS V14.01,2013-02-19 15:31:00,
2013-02-19 09:36:00,49.3,27.8,30.33,NE,55,1.0,5.0,43,0.00,,SCT270,0.00,VWS V14.01,2013-02-19 15:36:00,
2013-02-19 09:41:00,49.5,26.8,30.33,NE,51,3.0,7.0,41,0.00,,SCT270,0.00,VWS V14.01,2013-02-19 15:41:00,
2013-02-19 09:46:00,49.1,26.4,30.33,NE,47,2.0,5.0,41,0.00,,SCT270,0.00,VWS V14.01,2013-02-19 15:46:00,
2013-02-19 09:51:00,49.7,27.0,30.34,NNE,24,0.0,3.0,41,0.00,,SCT270,0.00,VWS V14.01,2013-02-19 15:51:00,
2013-02-19 09:56:00,50.3,27.5,30.33,NNE,12,2.0,3.0,41,0.00,,SCT270,0.00,VWS V14.01,2013-02-19 15:56:00,
2013-02-19 10:01:00,50.2,26.8,30.33,WNW,300,2.0,6.0,40,0.00,,FEW025,0.00,VWS V14.01,2013-02-19 16:01:00,
2013-02-19 10:06:00,49.9,26.6,30.33,ESE,119,0.0,7.0,40,0.00,,FEW025,0.00,VWS V14.01,2013-02-19 16:06:00,
2013-02-19 10:11:00,50.6,27.2,30.33,NE,35,1.0,6.0,40,0.00,,FEW025,0.00,VWS V14.01,2013-02-19 16:11:00,
2013-02-19 10:16:00,50.6,26.6,30.33,SE,130,0.0,4.0,39,0.00,,FEW025,0.00,VWS V14.01,2013-02-19 16:16:00,
2013-02-19 10:21:00,51.2,25.2,30.33,NE,44,3.0,8.0,36,0.00,,FEW025,0.00,VWS V14.01,2013-02-19 16:21:00,
2013-02-19 10:26:00,51.3,25.3,30.33,NE,54,4.0,8.0,36,0.00,,FEW025,0.00,VWS V14.01,2013-02-19 16:26:00,
2013-02-19 10:31:00,50.9,25.6,30.33,NE,47,5.0,6.0,37,0.00,,FEW025,0.00,VWS V14.01,2013-02-19 16:31:00,
2013-02-19 10:36:00,51.5,25.5,30.33,NE,35,6.0,6.0,36,0.00,,FEW025,0.00,VWS V14.01,2013-02-19 16:36:00,
2013-02-19 10:41:00,51.4,24.7,30.33,NE,55,3.0,6.0,35,0.00,,FEW025,0.00,VWS V14.01,2013-02-19 16:41:00,
2013-02-19 10:46:00,51.7,25.0,30.33,NNE,17,5.0,7.0,35,0.00,,FEW025,0.00,VWS V14.01,2013-02-19 16:46:00,
2013-02-19 10:51:00,52.2,25.4,30.32,NE,46,1.0,7.0,35,0.00,,FEW025,0.00,VWS V14.01,2013-02-19 16:51:00,
2013-02-19 10:56:00,52.5,25.7,30.33,NE,44,2.0,2.0,35,0.00,,FEW025,0.00,VWS V14.01,2013-02-19 16:56:00,
2013-02-19 11:01:00,52.9,26.0,30.33,South,184,0.0,6.0,35,0.00,,FEW250,0.00,VWS V14.01,2013-02-19 17:01:00,
2013-02-19 11:06:00,53.6,25.9,30.33,NE,38,5.0,5.0,34,0.00,,FEW250,0.00,VWS V14.01,2013-02-19 17:06:00,
2013-02-19 11:11:00,53.4,25.0,30.33,ENE,58,1.0,8.0,33,0.00,,FEW250,0.00,VWS V14.01,2013-02-19 17:11:00,
2013-02-19 11:16:00,54.2,25.7,30.33,East,92,2.0,8.0,33,0.00,,FEW250,0.00,VWS V14.01,2013-02-19 17:16:00,
2013-02-19 11:21:00,53.6,25.2,30.33,NE,47,4.0,8.0,33,0.00,,FEW250,0.00,VWS V14.01,2013-02-19 17:21:00,
2013-02-19 11:26:00,53.9,26.9,30.33,NNE,15,3.0,6.0,35,0.00,,FEW250,0.00,VWS V14.01,2013-02-19 17:26:00,
2013-02-19 11:31:00,54.2,24.2,30.33,NE,44,2.0,8.0,31,0.00,,FEW250,0.00,VWS V14.01,2013-02-19 17:31:00,
2013-02-19 11:36:00,54.3,24.3,30.33,NNE,20,2.0,5.0,31,0.00,,FEW250,0.00,VWS V14.01,2013-02-19 17:36:00,
2013-02-19 11:41:00,54.9,26.4,30.33,NNW,348,1.0,4.0,33,0.00,,FEW250,0.00,VWS V14.01,2013-02-19 17:41:00,
2013-02-19 11:46:00,54.9,24.9,30.32,NNE,32,2.0,7.0,31,0.00,,FEW250,0.00,VWS V14.01,2013-02-19 17:46:00,
2013-02-19 11:51:00,55.2,25.1,30.32,NE,38,2.0,7.0,31,0.00,,FEW250,0.00,VWS V14.01,2013-02-19 17:51:00,
2013-02-19 11:56:00,55.5,25.4,30.32,NNE,25,1.0,5.0,31,0.00,,FEW250,0.00,VWS V14.01,2013-02-19 17:56:00,
2013-02-19 12:01:00,55.9,24.1,30.31,NNE,22,2.0,5.0,29,0.00,,FEW250,0.00,VWS V14.01,2013-02-19 18:01:00,
2013-02-19 12:06:00,56.4,25.4,30.31,ENE,58,1.0,5.0,30,0.00,,FEW250,0.00,VWS V14.01,2013-02-19 18:06:00,
2013-02-19 12:11:00,56.8,24.9,30.31,ENE,58,1.0,1.0,29,0.00,,FEW250,0.00,VWS V14.01,2013-02-19 18:11:00,
2013-02-19 12:16:00,56.7,26.4,30.30,NNW,334,3.0,3.0,31,0.00,,FEW250,0.00,VWS V14.01,2013-02-19 18:16:00,
2013-02-19 12:21:00,57.1,26.0,30.30,ENE,58,3.0,3.0,30,0.00,,FEW250,0.00,VWS V14.01,2013-02-19 18:21:00,
2013-02-19 12:26:00,56.9,25.0,30.31,NE,44,5.0,7.0,29,0.00,,FEW250,0.00,VWS V14.01,2013-02-19 18:26:00,
2013-02-19 12:31:00,56.9,25.0,30.30,ENE,61,3.0,3.0,29,0.00,,FEW250,0.00,VWS V14.01,2013-02-19 18:31:00,
2013-02-19 12:36:00,56.8,23.2,30.30,NE,43,7.0,8.0,27,0.00,,FEW250,0.00,VWS V14.01,2013-02-19 18:36:00,
2013-02-19 12:41:00,57.4,24.6,30.29,NE,54,6.0,7.0,28,0.00,,FEW250,0.00,VWS V14.01,2013-02-19 18:41:00,
2013-02-19 12:46:00,57.2,24.4,30.29,NE,51,4.0,4.0,28,0.00,,FEW250,0.00,VWS V14.01,2013-02-19 18:46:00,
2013-02-19 12:51:00,57.9,24.1,30.28,SE,130,2.0,2.0,27,0.00,,FEW250,0.00,VWS V14.01,2013-02-19 18:51:00,
2013-02-19 12:56:00,57.9,26.7,30.28,ENE,58,5.0,5.0,30,0.00,,FEW250,0.00,VWS V14.01,2013-02-19 18:56:00,
2013-02-19 13:01:00,58.0,26.8,30.28,SSE,153,0.0,0.0,30,0.00,,SCT250,0.00,VWS V14.01,2013-02-19 19:01:00,
2013-02-19 13:06:00,58.3,25.4,30.28,NE,39,5.0,9.0,28,0.00,,SCT250,0.00,VWS V14.01,2013-02-19 19:06:00,
2013-02-19 13:11:00,57.8,24.1,30.28,ENE,70,5.0,9.0,27,0.00,,SCT250,0.00,VWS V14.01,2013-02-19 19:11:00,
2013-02-19 13:16:00,58.0,24.2,30.28,SSE,155,1.0,4.0,27,0.00,,SCT250,0.00,VWS V14.01,2013-02-19 19:16:00,
2013-02-19 13:21:00,59.1,26.9,30.28,South,172,2.0,2.0,29,0.00,,SCT250,0.00,VWS V14.01,2013-02-19 19:21:00,
2013-02-19 13:26:00,59.6,25.6,30.27,SE,143,1.0,2.0,27,0.00,,SCT250,0.00,VWS V14.01,2013-02-19 19:26:00,
2013-02-19 13:31:00,59.8,25.8,30.26,East,96,2.0,7.0,27,0.00,,SCT250,0.00,VWS V14.01,2013-02-19 19:31:00,
2013-02-19 13:36:00,59.6,23.8,30.26,NE,55,3.0,5.0,25,0.00,,SCT250,0.00,VWS V14.01,2013-02-19 19:36:00,
2013-02-19 13:41:00,59.3,24.4,30.25,NE,40,4.0,7.0,26,0.00,,SCT250,0.00,VWS V14.01,2013-02-19 19:41:00,
2013-02-19 13:46:00,59.6,26.5,30.25,NNE,17,3.0,4.0,28,0.00,,SCT250,0.00,VWS V14.01,2013-02-19 19:46:00,
2013-02-19 13:51:00,59.3,24.4,30.25,East,98,1.0,1.0,26,0.00,,SCT250,0.00,VWS V14.01,2013-02-19 19:51:00,
2013-02-19 13:56:00,59.1,25.2,30.24,NE,50,6.0,6.0,27,0.00,,SCT250,0.00,VWS V14.01,2013-02-19 19:56:00,
2013-02-19 14:01:00,58.8,24.9,30.24,NE,42,4.0,4.0,27,0.00,,FEW250,0.00,VWS V14.01,2013-02-19 20:01:00,
2013-02-19 14:06:00,59.1,25.2,30.23,NE,40,1.0,2.0,27,0.00,,FEW250,0.00,VWS V14.01,2013-02-19 20:06:00,
2013-02-19 14:11:00,59.4,25.4,30.23,NNW,337,1.0,2.0,27,0.00,,FEW250,0.00,VWS V14.01,2013-02-19 20:11:00,
2013-02-19 14:16:00,59.7,26.6,30.23,ENE,67,3.0,3.0,28,0.00,,FEW250,0.00,VWS V14.01,2013-02-19 20:16:00,
2013-02-19 14:21:00,59.5,23.7,30.23,NE,48,6.0,8.0,25,0.00,,FEW250,0.00,VWS V14.01,2013-02-19 20:21:00,
2013-02-19 14:26:00,59.1,25.2,30.23,NE,50,4.0,4.0,27,0.00,,FEW250,0.00,VWS V14.01,2013-02-19 20:26:00,
2013-02-19 14:31:00,60.0,24.1,30.23,SSE,149,0.0,2.0,25,0.00,,FEW250,0.00,VWS V14.01,2013-02-19 20:31:00,
2013-02-19 14:36:00,60.5,23.5,30.23,ENE,77,3.0,3.0,24,0.00,,FEW250,0.00,VWS V14.01,2013-02-19 20:36:00,
2013-02-19 14:41:00,60.5,23.5,30.22,ESE,118,1.0,2.0,24,0.00,,FEW250,0.00,VWS V14.01,2013-02-19 20:41:00,
2013-02-19 14:46:00,60.7,22.7,30.22,ENE,67,3.0,8.0,23,0.00,,FEW250,0.00,VWS V14.01,2013-02-19 20:46:00,
2013-02-19 14:51:00,60.2,23.3,30.21,NE,43,3.0,7.0,24,0.00,,FEW250,0.00,VWS V14.01,2013-02-19 20:51:00,
2013-02-19 14:56:00,60.1,23.2,30.21,NE,55,2.0,4.0,24,0.00,,FEW250,0.00,VWS V14.01,2013-02-19 20:56:00,
2013-02-19 15:01:00,60.0,24.1,30.21,WNW,295,1.0,4.0,25,0.00,,BKN250,0.00,VWS V14.01,2013-02-19 21:01:00,
2013-02-19 15:06:00,60.7,24.7,30.21,ESE,117,3.0,3.0,25,0.00,,BKN250,0.00,VWS V14.01,2013-02-19 21:06:00,
2013-02-19 15:11:00,61.0,25.0,30.20,ENE,78,2.0,4.0,25,0.00,,BKN250,0.00,VWS V14.01,2013-02-19 21:11:00,
2013-02-19 15:16:00,60.7,24.7,30.20,ESE,105,2.0,7.0,25,0.00,,BKN250,0.00,VWS V14.01,2013-02-19 21:16:00,
2013-02-19 15:21:00,60.7,24.7,30.19,NE,50,5.0,5.0,25,0.00,,BKN250,0.00,VWS V14.01,2013-02-19 21:21:00,
2013-02-19 15:26:00,60.6,24.6,30.19,SE,130,2.0,4.0,25,0.00,,BKN250,0.00,VWS V14.01,2013-02-19 21:26:00,
2013-02-19 15:31:00,61.3,26.1,30.19,ENE,58,5.0,5.0,26,0.00,,BKN250,0.00,VWS V14.01,2013-02-19 21:31:00,
2013-02-19 15:36:00,60.9,24.9,30.19,NE,51,2.0,5.0,25,0.00,,BKN250,0.00,VWS V14.01,2013-02-19 21:36:00,
2013-02-19 15:41:00,60.7,25.6,30.19,NNW,340,4.0,7.0,26,0.00,,BKN250,0.00,VWS V14.01,2013-02-19 21:41:00,
2013-02-19 15:46:00,60.6,24.6,30.18,NE,55,6.0,6.0,25,0.00,,BKN250,0.00,VWS V14.01,2013-02-19 21:46:00,
2013-02-19 15:51:00,60.7,24.7,30.18,NNE,27,4.0,6.0,25,0.00,,BKN250,0.00,VWS V14.01,2013-02-19 21:51:00,
2013-02-19 15:56:00,60.4,24.4,30.18,NE,34,8.0,8.0,25,0.00,,BKN250,0.00,VWS V14.01,2013-02-19 21:56:00,
2013-02-19 16:01:00,60.3,24.4,30.18,NE,34,2.0,9.0,25,0.00,,BKN250,0.00,VWS V14.01,2013-02-19 22:01:00,
2013-02-19 16:06:00,60.5,24.5,30.18,NNE,15,5.0,5.0,25,0.00,,BKN250,0.00,VWS V14.01,2013-02-19 22:06:00,
2013-02-19 16:11:00,60.8,23.8,30.17,ENE,58,3.0,5.0,24,0.00,,BKN250,0.00,VWS V14.01,2013-02-19 22:11:00,
2013-02-19 16:16:00,60.8,23.8,30.17,NE,50,3.0,3.0,24,0.00,,BKN250,0.00,VWS V14.01,2013-02-19 22:16:00,
2013-02-19 16:21:00,60.8,24.8,30.17,NE,34,6.0,6.0,25,0.00,,BKN250,0.00,VWS V14.01,2013-02-19 22:21:00,
2013-02-19 16:26:00,60.7,24.7,30.17,NE,44,4.0,7.0,25,0.00,,BKN250,0.00,VWS V14.01,2013-02-19 22:26:00,
2013-02-19 16:31:00,60.5,23.5,30.17,SE,146,1.0,5.0,24,0.00,,BKN250,0.00,VWS V14.01,2013-02-19 22:31:00,
2013-02-19 16:36:00,60.4,23.5,30.17,ENE,77,2.0,5.0,24,0.00,,BKN250,0.00,VWS V14.01,2013-02-19 22:36:00,
2013-02-19 16:41:00,60.2,23.3,30.17,NE,47,0.0,4.0,24,0.00,,BKN250,0.00,VWS V14.01,2013-02-19 22:41:00,
2013-02-19 16:46:00,59.8,23.0,30.17,SSE,159,2.0,9.0,24,0.00,,BKN250,0.00,VWS V14.01,2013-02-19 22:46:00,
2013-02-19 16:51:00,59.5,23.7,30.17,ENE,63,1.0,2.0,25,0.00,,BKN250,0.00,VWS V14.01,2013-02-19 22:51:00,
2013-02-19 16:56:00,59.4,24.5,30.17,ENE,61,0.0,2.0,26,0.00,,BKN250,0.00,VWS V14.01,2013-02-19 22:56:00,
2013-02-19 17:01:00,59.3,24.4,30.17,ENE,61,2.0,2.0,26,0.00,,BKN250,0.00,VWS V14.01,2013-02-19 23:01:00,
2013-02-19 17:06:00,59.1,23.3,30.17,East,82,1.0,3.0,25,0.00,,BKN250,0.00,VWS V14.01,2013-02-19 23:06:00,
2013-02-19 17:12:00,59.0,24.2,30.17,NE,47,4.0,4.0,26,0.00,,BKN250,0.00,VWS V14.01,2013-02-19 23:12:00,
2013-02-19 17:17:00,59.0,25.1,30.17,NE,35,2.0,2.0,27,0.00,,BKN250,0.00,VWS V14.01,2013-02-19 23:17:00,
2013-02-19 17:22:00,59.1,25.2,30.17,NE,47,0.0,2.0,27,0.00,,BKN250,0.00,VWS V14.01,2013-02-19 23:22:00,
2013-02-19 17:27:00,58.9,25.9,30.17,SW,230,0.0,1.0,28,0.00,,BKN250,0.00,VWS V14.01,2013-02-19 23:27:00,
2013-02-19 17:32:00,58.7,25.7,30.18,SE,129,0.0,1.0,28,0.00,,BKN250,0.00,VWS V14.01,2013-02-19 23:32:00,
2013-02-19 17:37:00,58.5,25.5,30.18,ENE,58,0.0,2.0,28,0.00,,BKN250,0.00,VWS V14.01,2013-02-19 23:37:00,
2013-02-19 17:42:00,58.4,25.5,30.18,ENE,65,0.0,3.0,28,0.00,,BKN250,0.00,VWS V14.01,2013-02-19 23:42:00,
2013-02-19 17:47:00,58.2,25.3,30.18,ENE,70,0.0,1.0,28,0.00,,BKN250,0.00,VWS V14.01,2013-02-19 23:47:00,
2013-02-19 17:52:00,58.0,26.0,30.18,ENE,68,1.0,5.0,29,0.00,,BKN250,0.00,VWS V14.01,2013-02-19 23:52:00,
2013-02-19 17:57:00,57.8,25.8,30.17,NNE,32,2.0,5.0,29,0.00,,BKN250,0.00,VWS V14.01,2013-02-19 23:57:00,
2013-02-19 18:02:00,57.6,24.8,30.17,NW,314,0.0,2.0,28,0.00,,BKN250,0.00,VWS V14.01,2013-02-20 00:02:00,
2013-02-19 18:07:00,57.5,24.7,30.17,ENE,67,1.0,3.0,28,0.00,,BKN250,0.00,VWS V14.01,2013-02-20 00:07:00,
2013-02-19 18:12:00,57.3,24.5,30.17,ESE,105,1.0,3.0,28,0.00,,BKN250,0.00,VWS V14.01,2013-02-20 00:12:00,
2013-02-19 18:17:00,57.1,24.3,30.17,East,96,1.0,4.0,28,0.00,,BKN250,0.00,VWS V14.01,2013-02-20 00:17:00,
2013-02-19 18:22:00,57.0,25.1,30.17,SE,145,0.0,1.0,29,0.00,,BKN250,0.00,VWS V14.01,2013-02-20 00:22:00,
2013-02-19 18:27:00,56.9,24.1,30.17,ENE,71,0.0,2.0,28,0.00,,BKN250,0.00,VWS V14.01,2013-02-20 00:27:00,
2013-02-19 18:32:00,56.7,24.8,30.18,ESE,119,4.0,4.0,29,0.00,,BKN250,0.00,VWS V14.01,2013-02-20 00:32:00,
2013-02-19 18:37:00,56.5,25.5,30.18,WSW,237,0.0,0.0,30,0.00,,BKN250,0.00,VWS V14.01,2013-02-20 00:37:00,
2013-02-19 18:42:00,56.4,25.4,30.18,SE,145,0.0,0.0,30,0.00,,BKN250,0.00,VWS V14.01,2013-02-20 00:42:00,
2013-02-19 18:47:00,56.2,25.2,30.18,SSE,157,0.0,0.0,30,0.00,,BKN250,0.00,VWS V14.01,2013-02-20 00:47:00,
2013-02-19 18:52:00,56.2,25.2,30.18,NE,38,0.0,2.0,30,0.00,,BKN250,0.00,VWS V14.01,2013-02-20 00:52:00,
2013-02-19 18:57:00,56.3,25.3,30.17,ENE,70,0.0,5.0,30,0.00,,BKN250,0.00,VWS V14.01,2013-02-20 00:57:00,
2013-02-19 19:02:00,56.3,25.3,30.17,East,98,0.0,1.0,30,0.00,,OVC250,0.00,VWS V14.01,2013-02-20 01:02:00,
2013-02-19 19:07:00,56.3,25.3,30.18,ESE,104,1.0,2.0,30,0.00,,OVC250,0.00,VWS V14.01,2013-02-20 01:07:00,
2013-02-19 19:12:00,56.3,25.3,30.17,SW,225,0.0,1.0,30,0.00,,OVC250,0.00,VWS V14.01,2013-02-20 01:12:00,
2013-02-19 19:17:00,56.3,25.3,30.17,NNE,31,1.0,2.0,30,0.00,,OVC250,0.00,VWS V14.01,2013-02-20 01:17:00,
2013-02-19 19:22:00,56.3,25.3,30.17,ESE,104,1.0,3.0,30,0.00,,OVC250,0.00,VWS V14.01,2013-02-20 01:22:00,
2013-02-19 19:27:00,56.2,25.2,30.17,ESE,116,1.0,5.0,30,0.00,,OVC250,0.00,VWS V14.01,2013-02-20 01:27:00,
2013-02-19 19:32:00,56.2,25.2,30.17,NE,49,3.0,3.0,30,0.00,,OVC250,0.00,VWS V14.01,2013-02-20 01:32:00,
2013-02-19 19:37:00,56.2,25.2,30.17,ENE,58,1.0,4.0,30,0.00,,OVC250,0.00,VWS V14.01,2013-02-20 01:37:00,
2013-02-19 19:42:00,56.1,25.1,30.17,NNE,31,2.0,3.0,30,0.00,,OVC250,0.00,VWS V14.01,2013-02-20 01:42:00,
2013-02-19 19:47:00,56.0,25.0,30.16,NE,43,1.0,5.0,30,0.00,,OVC250,0.00,VWS V14.01,2013-02-20 01:47:00,
2013-02-19 19:52:00,56.0,25.0,30.16,NE,34,2.0,5.0,30,0.00,,OVC250,0.00,VWS V14.01,2013-02-20 01:52:00,
2013-02-19 19:57:00,55.9,24.9,30.17,NE,34,4.0,7.0,30,0.00,,OVC250,0.00,VWS V14.01,2013-02-20 01:57:00,
2013-02-19 20:02:00,55.9,24.9,30.16,NE,34,0.0,3.0,30,0.00,,OVC190,0.00,VWS V14.01,2013-02-20 02:02:00,
2013-02-19 20:07:00,55.9,24.9,30.16,NNE,27,2.0,3.0,30,0.00,,OVC190,0.00,VWS V14.01,2013-02-20 02:07:00,
2013-02-19 20:12:00,55.8,25.6,30.17,NE,46,0.0,2.0,31,0.00,,OVC190,0.00,VWS V14.01,2013-02-20 02:12:00,
2013-02-19 20:17:00,55.7,25.5,30.17,ENE,58,0.0,3.0,31,0.00,,OVC190,0.00,VWS V14.01,2013-02-20 02:17:00,
2013-02-19 20:22:00,55.5,25.4,30.17,NE,55,0.0,5.0,31,0.00,,OVC190,0.00,VWS V14.01,2013-02-20 02:22:00,
2013-02-19 20:27:00,55.5,25.4,30.18,ENE,62,1.0,2.0,31,0.00,,OVC190,0.00,VWS V14.01,2013-02-20 02:27:00,
2013-02-19 20:32:00,55.5,25.4,30.18,ENE,71,3.0,3.0,31,0.00,,OVC190,0.00,VWS V14.01,2013-02-20 02:32:00,
2013-02-19 20:37:00,55.5,25.4,30.18,ESE,123,1.0,2.0,31,0.00,,OVC190,0.00,VWS V14.01,2013-02-20 02:37:00,
2013-02-19 20:42:00,55.4,26.0,30.18,NE,47,1.0,2.0,32,0.00,,OVC190,0.00,VWS V14.01,2013-02-20 02:42:00,
2013-02-19 20:47:00,55.3,26.0,30.18,East,98,0.0,2.0,32,0.00,,OVC190,0.00,VWS V14.01,2013-02-20 02:47:00,
2013-02-19 20:52:00,55.3,26.0,30.18,NE,38,0.0,1.0,32,0.00,,OVC190,0.00,VWS V14.01,2013-02-20 02:52:00,
2013-02-19 20:57:00,55.1,25.8,30.18,SW,233,0.0,2.0,32,0.00,,OVC190,0.00,VWS V14.01,2013-02-20 02:57:00,
2013-02-19 21:02:00,55.1,26.5,30.18,NE,49,0.0,2.0,33,0.00,,OVC180,0.00,VWS V14.01,2013-02-20 03:02:00,
2013-02-19 21:07:00,55.0,26.5,30.19,NE,42,0.0,3.0,33,0.00,,OVC180,0.00,VWS V14.01,2013-02-20 03:07:00,
2013-02-19 21:12:00,55.1,25.8,30.19,ESE,105,0.0,2.0,32,0.00,,OVC180,0.00,VWS V14.01,2013-02-20 03:12:00,
2013-02-19 21:17:00,55.1,26.5,30.19,East,99,3.0,3.0,33,0.00,,OVC180,0.00,VWS V14.01,2013-02-20 03:17:00,
2013-02-19 21:22:00,55.1,26.5,30.19,NE,40,0.0,3.0,33,0.00,,OVC180,0.00,VWS V14.01,2013-02-20 03:22:00,
2013-02-19 21:27:00,55.1,26.5,30.19,NNE,32,0.0,1.0,33,0.00,,OVC180,0.00,VWS V14.01,2013-02-20 03:27:00,
2013-02-19 21:32:00,55.0,27.2,30.19,WNW,291,0.0,1.0,34,0.00,,OVC180,0.00,VWS V14.01,2013-02-20 03:32:00,
2013-02-19 21:37:00,55.0,27.2,30.18,East,84,0.0,2.0,34,0.00,,OVC180,0.00,VWS V14.01,2013-02-20 03:37:00,
2013-02-19 21:42:00,55.0,26.5,30.18,NNE,17,1.0,2.0,33,0.00,,OVC180,0.00,VWS V14.01,2013-02-20 03:42:00,
2013-02-19 21:47:00,55.0,26.5,30.18,West,265,0.0,1.0,33,0.00,,OVC180,0.00,VWS V14.01,2013-02-20 03:47:00,
2013-02-19 21:52:00,55.0,27.2,30.18,SE,125,0.0,4.0,34,0.00,,OVC180,0.00,VWS V14.01,2013-02-20 03:52:00,
2013-02-19 21:57:00,55.0,27.2,30.18,NNE,32,0.0,1.0,34,0.00,,OVC180,0.00,VWS V14.01,2013-02-20 03:57:00,
2013-02-19 22:02:00,54.9,27.8,30.18,ESE,104,4.0,5.0,35,0.00,,-RA,0.00,VWS V14.01,2013-02-20 04:02:00,
2013-02-19 22:07:00,54.9,27.8,30.18,NNE,24,1.0,1.0,35,0.00,,-RA,0.00,VWS V14.01,2013-02-20 04:07:00,
2013-02-19 22:12:00,54.8,28.4,30.18,SSW,200,0.0,6.0,36,0.00,,-RA,0.00,VWS V14.01,2013-02-20 04:12:00,
2013-02-19 22:17:00,54.6,29.5,30.18,SE,133,1.0,2.0,38,0.00,,-RA,0.00,VWS V14.01,2013-02-20 04:17:00,
2013-02-19 22:22:00,54.4,30.0,30.18,SE,139,1.0,3.0,39,0.00,,-RA,0.00,VWS V14.01,2013-02-20 04:22:00,
2013-02-19 22:27:00,54.1,30.3,30.18,SE,128,0.0,2.0,40,0.00,,-RA,0.00,VWS V14.01,2013-02-20 04:27:00,
2013-02-19 22:32:00,53.8,30.7,30.18,SSE,164,2.0,2.0,41,0.00,,-RA,0.00,VWS V14.01,2013-02-20 04:32:00,
2013-02-19 22:37:00,53.5,31.0,30.18,ENE,73,0.0,2.0,42,0.00,,-RA,0.00,VWS V14.01,2013-02-20 04:37:00,
2013-02-19 22:42:00,53.3,30.8,30.18,NE,40,0.0,1.0,42,0.00,,-RA,0.00,VWS V14.01,2013-02-20 04:42:00,
2013-02-19 22:47:00,53.2,30.7,30.18,SE,146,1.0,4.0,42,0.00,,-RA,0.00,VWS V14.01,2013-02-20 04:47:00,
2013-02-19 22:52:00,53.2,31.3,30.17,SSE,153,0.0,0.0,43,0.00,,-RA,0.00,VWS V14.01,2013-02-20 04:52:00,
2013-02-19 22:57:00,53.0,31.7,30.17,SSE,159,1.0,2.0,44,0.00,,-RA,0.00,VWS V14.01,2013-02-20 04:57:00,
2013-02-19 23:00:00,52.9,32.2,30.17,East,86,0.0,2.0,45,0.00,,-RA,0.00,VWS V14.01,2013-02-20 05:00:00,
2013-02-19 23:05:00,52.7,32.5,30.17,ENE,76,1.0,3.0,46,0.00,,-RA,0.00,VWS V14.01,2013-02-20 05:05:00,
2013-02-19 23:10:00,52.5,31.8,30.17,SSE,148,1.0,5.0,45,0.00,,-RA,0.00,VWS V14.01,2013-02-20 05:10:00,
2013-02-19 23:15:00,52.4,32.8,30.16,ESE,119,1.0,3.0,47,0.00,,-RA,0.00,VWS V14.01,2013-02-20 05:15:00,
2013-02-19 23:20:00,52.3,32.2,30.16,SE,137,0.0,7.0,46,0.00,,-RA,0.00,VWS V14.01,2013-02-20 05:20:00,
2013-02-19 23:25:00,52.3,32.2,30.16,NE,49,1.0,5.0,46,0.00,,-RA,0.00,VWS V14.01,2013-02-20 05:25:00,
2013-02-19 23:30:00,52.4,32.2,30.15,NE,44,1.0,5.0,46,0.00,,-RA,0.00,VWS V14.01,2013-02-20 05:30:00,
2013-02-19 23:35:00,52.4,32.8,30.16,NE,51,3.0,4.0,47,0.00,,-RA,0.00,VWS V14.01,2013-02-20 05:35:00,
2013-02-19 23:40:00,52.4,32.2,30.16,East,100,2.0,4.0,46,0.00,,-RA,0.00,VWS V14.01,2013-02-20 05:40:00,
2013-02-19 23:45:00,52.4,32.2,30.16,SW,236,0.0,3.0,46,0.00,,-RA,0.00,VWS V14.01,2013-02-20 05:45:00,
2013-02-19 23:50:00,52.4,32.2,30.16,NE,42,2.0,3.0,46,0.00,,-RA,0.00,VWS V14.01,2013-02-20 05:50:00,
2013-02-19 23:55:00,52.4,32.2,30.16,NNE,30,2.0,4.0,46,0.00,,-RA,0.00,VWS V14.01,2013-02-20 05:55:00,